createdAt,value
2023-02-19T00:01:43.133Z,6.97
2023-02-19T00:04:14.644Z,6.30
2023-02-19T00:06:42.065Z,7.88
2023-02-19T00:09:11.657Z,6.25
2023-02-19T00:11:38.600Z,7.57
2023-02-19T00:14:06.301Z,7.00
2023-02-19T00:16:37.859Z,8.93
2023-02-19T00:19:07.653Z,5.45
2023-02-19T00:21:34.236Z,6.10
2023-02-19T00:24:04.161Z,7.50
2023-02-19T00:26:30.822Z,5.50
2023-02-19T00:28:58.757Z,5.55
2023-02-19T00:31:32.214Z,5.45
2023-02-19T00:34:02.611Z,5.97
2023-02-19T00:36:30.463Z,7.13
2023-02-19T00:38:57.831Z,7.47
2023-02-19T00:41:25.037Z,4.15
2023-02-19T00:44:00.785Z,6.18
2023-02-19T00:46:46.235Z,7.97
2023-02-19T00:49:19.873Z,4.97
2023-02-19T00:51:48.389Z,4.05
2023-02-19T00:54:14.979Z,4.80
2023-02-19T00:56:41.932Z,4.15
2023-02-19T00:59:08.759Z,4.45
2023-02-19T01:01:35.940Z,7.38
2023-02-19T01:04:03.383Z,5.45
2023-02-19T01:06:32.596Z,4.35
2023-02-19T01:08:59.072Z,5.05
2023-02-19T01:11:25.886Z,4.63
2023-02-19T01:13:52.296Z,3.10
2023-02-19T01:16:22.271Z,7.57
2023-02-19T01:18:49.128Z,4.22
2023-02-19T01:21:23.929Z,4.18
2023-02-19T01:23:51.768Z,4.47
2023-02-19T01:26:22.684Z,3.03
2023-02-19T01:28:50.160Z,3.50
2023-02-19T01:31:22.585Z,4.18
2023-02-19T01:33:51.950Z,4.80
2023-02-19T01:36:18.798Z,5.32
2023-02-19T01:38:46.032Z,4.75
2023-02-19T01:41:16.063Z,5.40
2023-02-19T01:43:56.260Z,6.07
2023-02-19T01:46:29.147Z,3.70
2023-02-19T01:49:02.994Z,2.88
2023-02-19T01:51:32.544Z,3.78
2023-02-19T01:54:02.558Z,3.93
2023-02-19T01:56:32.468Z,4.13
2023-02-19T01:59:00.697Z,4.35
2023-02-19T02:01:27.141Z,3.60
2023-02-19T02:03:54.102Z,3.13
2023-02-19T02:06:25.564Z,3.40
2023-02-19T02:09:17.132Z,5.00
2023-02-19T02:11:52.209Z,3.42
2023-02-19T02:14:27.387Z,4.90
2023-02-19T02:17:17.801Z,5.25
2023-02-19T02:20:14.056Z,2.78
2023-02-19T02:22:59.211Z,2.90
2023-02-19T02:26:08.659Z,2.97
2023-02-19T02:28:57.409Z,2.75
2023-02-19T02:31:38.973Z,3.83
2023-02-19T02:34:19.062Z,3.03
2023-02-19T02:36:50.114Z,2.60
2023-02-19T02:39:20.572Z,4.38
2023-02-19T02:42:14.802Z,2.92
2023-02-19T02:45:04.594Z,2.33
2023-02-19T02:47:44.774Z,3.05
2023-02-19T02:50:18.634Z,2.37
2023-02-19T02:53:10.070Z,2.00
2023-02-19T02:55:41.928Z,1.92
2023-02-19T02:58:11.131Z,2.00
2023-02-19T03:01:02.769Z,1.92
2023-02-19T03:03:32.100Z,1.70
2023-02-19T03:06:04.811Z,2.40
2023-02-19T03:08:36.257Z,2.00
2023-02-19T03:11:25.797Z,1.50
2023-02-19T03:14:20.261Z,1.27
2023-02-19T03:17:09.268Z,1.92
2023-02-19T03:19:43.418Z,1.60
2023-02-19T03:22:33.235Z,1.48
2023-02-19T03:25:31.076Z,1.40
2023-02-19T03:28:01.278Z,3.33
2023-02-19T03:30:40.337Z,1.20
2023-02-19T03:33:12.185Z,1.45
2023-02-19T03:35:51.036Z,1.40
2023-02-19T03:38:29.891Z,1.30
2023-02-19T03:41:05.844Z,1.98
2023-02-19T03:43:40.727Z,0.93
2023-02-19T03:46:14.064Z,1.38
2023-02-19T03:48:59.357Z,1.23
2023-02-19T03:51:44.949Z,1.33
2023-02-19T03:54:19.345Z,1.15
2023-02-19T03:56:54.827Z,1.30
2023-02-19T03:59:34.795Z,2.80
2023-02-19T04:02:19.619Z,3.60
2023-02-19T04:04:55.716Z,1.27
2023-02-19T04:07:25.626Z,1.65
2023-02-19T04:09:53.500Z,1.80
2023-02-19T04:12:22.879Z,2.00
2023-02-19T04:15:06.679Z,7.93
2023-02-19T04:17:44.369Z,1.70
2023-02-19T04:20:13.732Z,1.92
2023-02-19T04:22:42.412Z,1.80
2023-02-19T04:25:09.725Z,2.28
2023-02-19T04:27:38.674Z,1.80
2023-02-19T04:30:11.862Z,1.98
2023-02-19T04:32:38.422Z,3.13
2023-02-19T04:35:05.119Z,4.20
2023-02-19T04:37:31.839Z,2.65
2023-02-19T04:39:58.233Z,2.78
2023-02-19T04:42:24.939Z,2.60
2023-02-19T04:44:51.549Z,2.50
2023-02-19T04:47:17.951Z,4.78
2023-02-19T04:49:45.462Z,3.28
2023-02-19T04:52:12.910Z,3.20
2023-02-19T04:54:39.334Z,3.30
2023-02-19T04:57:06.433Z,3.58
2023-02-19T04:59:33.448Z,3.38
2023-02-19T05:02:00.304Z,3.53
2023-02-19T05:04:27.266Z,3.00
2023-02-19T05:06:53.986Z,5.88
2023-02-19T05:09:20.522Z,3.67
2023-02-19T05:11:47.439Z,5.63
2023-02-19T05:14:14.217Z,3.50
2023-02-19T05:16:40.783Z,4.22
2023-02-19T05:19:07.417Z,3.67
2023-02-19T05:21:34.077Z,4.95
2023-02-19T05:24:00.586Z,4.40
2023-02-19T05:26:27.481Z,4.05
2023-02-19T05:28:54.603Z,3.78
2023-02-19T05:31:21.656Z,4.63
2023-02-19T05:33:51.522Z,6.63
2023-02-19T05:36:21.128Z,5.43
2023-02-19T05:38:51.909Z,4.25
2023-02-19T05:41:21.168Z,6.03
2023-02-19T05:43:49.263Z,4.70
2023-02-19T05:46:19.595Z,6.15
2023-02-19T05:48:47.766Z,4.97
2023-02-19T05:51:17.570Z,5.13
2023-02-19T05:53:45.489Z,5.35
2023-02-19T05:56:24.211Z,5.30
2023-02-19T05:58:51.497Z,6.32
2023-02-19T06:01:20.142Z,6.05
2023-02-19T06:03:46.661Z,5.90
2023-02-19T06:06:14.628Z,4.63
2023-02-19T06:08:41.335Z,7.30
2023-02-19T06:11:08.262Z,4.53
2023-02-19T06:13:35.428Z,4.43
2023-02-19T06:16:06.385Z,4.10
2023-02-19T06:18:33.088Z,6.18
2023-02-19T06:21:05.385Z,5.65
2023-02-19T06:23:32.434Z,4.55
2023-02-19T06:26:23.721Z,6.70
2023-02-19T06:28:51.884Z,4.95
2023-02-19T06:31:22.124Z,4.93
2023-02-19T06:33:50.380Z,6.15
2023-02-19T06:36:20.112Z,4.57
2023-02-19T06:38:46.835Z,5.07
2023-02-19T06:41:14.444Z,7.15
2023-02-19T06:43:41.868Z,5.10
2023-02-19T06:46:08.651Z,5.00
2023-02-19T06:48:35.618Z,4.38
2023-02-19T06:51:02.706Z,4.63
2023-02-19T06:53:29.581Z,5.22
2023-02-19T06:56:07.115Z,4.88
2023-02-19T06:58:34.370Z,3.85
2023-02-19T07:01:01.107Z,4.03
2023-02-19T07:03:27.823Z,6.38
2023-02-19T07:05:54.316Z,4.90
2023-02-19T07:08:21.486Z,6.93
2023-02-19T07:10:56.562Z,7.22
2023-02-19T07:13:24.299Z,6.07
2023-02-19T07:15:52.312Z,5.25
2023-02-19T07:18:19.171Z,5.63
2023-02-19T07:20:45.622Z,4.65
2023-02-19T07:23:12.494Z,8.65
2023-02-19T07:25:39.517Z,6.25
2023-02-19T07:28:06.618Z,5.75
2023-02-19T07:30:33.350Z,6.93
2023-02-19T07:33:00.034Z,8.48
2023-02-19T07:35:27.247Z,5.65
2023-02-19T07:37:53.724Z,4.93
2023-02-19T07:40:20.246Z,6.95
2023-02-19T07:42:46.694Z,5.63
2023-02-19T07:45:13.189Z,4.68
2023-02-19T07:47:40.135Z,6.35
2023-02-19T07:50:07.251Z,5.63
2023-02-19T07:52:34.328Z,4.13
2023-02-19T07:55:00.905Z,4.80
2023-02-19T07:57:29.115Z,9.18
2023-02-19T07:59:55.573Z,5.28
2023-02-19T08:02:40.757Z,4.65
2023-02-19T08:05:07.695Z,4.15
2023-02-19T08:07:35.935Z,4.80
2023-02-19T08:10:22.471Z,8.77
2023-02-19T08:13:18.393Z,6.15
2023-02-19T08:16:01.709Z,4.07
2023-02-19T08:18:34.518Z,4.45
2023-02-19T08:21:01.319Z,4.97
2023-02-19T08:23:28.435Z,6.25
2023-02-19T08:25:58.515Z,4.55
2023-02-19T08:28:25.128Z,6.65
2023-02-19T08:30:52.537Z,4.53
2023-02-19T08:33:20.999Z,6.78
2023-02-19T08:35:48.058Z,5.07
2023-02-19T08:38:16.250Z,4.43
2023-02-19T08:40:43.568Z,5.55
2023-02-19T08:43:13.743Z,5.05
2023-02-19T08:45:42.452Z,6.93
2023-02-19T08:48:10.026Z,4.38
2023-02-19T08:50:37.381Z,7.05
2023-02-19T08:53:06.489Z,5.90
2023-02-19T08:55:33.586Z,5.43
2023-02-19T08:58:00.921Z,9.25
2023-02-19T09:00:27.546Z,7.97
2023-02-19T09:02:54.039Z,5.75
2023-02-19T09:05:20.630Z,11.63
2023-02-19T09:07:47.194Z,8.25
2023-02-19T09:10:14.588Z,5.30
2023-02-19T09:12:41.795Z,8.05
2023-02-19T09:15:08.692Z,6.47
2023-02-19T09:17:35.247Z,10.45
2023-02-19T09:20:01.759Z,9.90
2023-02-19T09:22:28.529Z,5.85
2023-02-19T09:24:55.062Z,8.43
2023-02-19T09:27:21.751Z,4.85
2023-02-19T09:29:48.563Z,6.47
2023-02-19T09:32:16.616Z,7.40
2023-02-19T09:34:44.169Z,7.53
2023-02-19T09:37:10.579Z,7.07
2023-02-19T09:39:37.090Z,6.68
2023-02-19T09:42:18.328Z,11.65
2023-02-19T09:44:49.660Z,11.05
2023-02-19T09:47:28.019Z,9.07
2023-02-19T09:49:57.087Z,7.82
2023-02-19T09:52:26.712Z,7.60
2023-02-19T09:54:57.647Z,9.75
2023-02-19T09:57:27.973Z,5.70
2023-02-19T10:00:23.426Z,8.35
2023-02-19T10:02:59.598Z,11.45
2023-02-19T10:05:26.693Z,11.45
2023-02-19T10:07:55.202Z,7.13
2023-02-19T10:10:27.538Z,10.48
2023-02-19T10:12:59.287Z,4.85
2023-02-19T10:15:36.791Z,5.65
2023-02-19T10:18:05.079Z,8.35
2023-02-19T10:20:32.179Z,7.05
2023-02-19T10:23:03.374Z,6.05
2023-02-19T10:25:31.830Z,11.20
2023-02-19T10:28:02.134Z,6.03
2023-02-19T10:30:31.925Z,5.82
2023-02-19T10:33:00.306Z,6.83
2023-02-19T10:35:26.916Z,5.30
2023-02-19T10:37:53.650Z,7.57
2023-02-19T10:40:26.731Z,6.95
2023-02-19T10:42:59.394Z,11.43
2023-02-19T10:45:35.148Z,6.68
2023-02-19T10:48:02.809Z,8.02
2023-02-19T10:50:39.269Z,5.78
2023-02-19T10:53:06.232Z,5.50
2023-02-19T10:55:37.801Z,5.70
2023-02-19T10:58:28.675Z,6.22
2023-02-19T11:01:13.322Z,7.35
2023-02-19T11:03:41.038Z,8.23
2023-02-19T11:06:13.063Z,6.47
2023-02-19T11:08:52.526Z,30.90
2023-02-19T11:11:24.871Z,7.20
2023-02-19T11:13:51.807Z,4.93
2023-02-19T11:16:18.463Z,6.07
2023-02-19T11:18:57.166Z,3.97
2023-02-19T11:21:33.173Z,6.45
2023-02-19T11:24:03.716Z,8.10
2023-02-19T11:26:38.301Z,5.53
2023-02-19T11:29:23.117Z,3.88
2023-02-19T11:31:50.179Z,7.50
2023-02-19T11:34:26.088Z,4.53
2023-02-19T11:37:14.067Z,7.78
2023-02-19T11:39:43.321Z,4.63
2023-02-19T11:42:29.287Z,8.60
2023-02-19T11:45:36.907Z,4.90
2023-02-19T11:48:28.618Z,5.45
2023-02-19T11:51:10.360Z,5.38
2023-02-19T11:53:49.656Z,6.28
2023-02-19T11:56:16.515Z,6.35
2023-02-19T11:58:55.356Z,5.28
2023-02-19T12:01:54.222Z,6.82
2023-02-19T12:04:53.815Z,7.47
2023-02-19T12:07:38.058Z,7.85
2023-02-19T12:10:56.545Z,6.00
2023-02-19T12:13:41.822Z,3.67
2023-02-19T12:16:17.430Z,3.75
2023-02-19T12:19:15.416Z,10.05
2023-02-19T12:22:08.402Z,3.60
2023-02-19T12:24:51.528Z,6.95
2023-02-19T12:27:49.040Z,10.75
2023-02-19T12:30:40.647Z,6.20
2023-02-19T12:33:35.164Z,3.25
2023-02-19T12:36:34.861Z,6.18
2023-02-19T12:39:15.591Z,7.47
2023-02-19T12:42:03.950Z,5.85
2023-02-19T12:44:42.196Z,6.10
2023-02-19T12:47:18.188Z,8.38
2023-02-19T12:49:56.704Z,6.63
2023-02-19T12:52:27.027Z,7.63
2023-02-19T12:54:57.878Z,3.60
2023-02-19T12:57:31.463Z,7.15
2023-02-19T13:00:23.686Z,7.35
2023-02-19T13:02:59.899Z,8.15
2023-02-19T13:05:35.035Z,9.38
2023-02-19T13:08:07.667Z,5.47
2023-02-19T13:10:46.333Z,5.97
2023-02-19T13:13:31.326Z,7.32
2023-02-19T13:16:05.896Z,6.25
2023-02-19T13:18:39.692Z,5.03
2023-02-19T13:21:07.165Z,6.35
2023-02-19T13:23:57.540Z,6.05
2023-02-19T13:26:30.358Z,6.55
2023-02-19T13:29:06.252Z,8.98
2023-02-19T13:32:14.802Z,4.88
2023-02-19T13:34:50.613Z,7.85
2023-02-19T13:37:17.830Z,6.88
2023-02-19T13:39:49.892Z,6.03
2023-02-19T13:42:26.526Z,6.38
2023-02-19T13:44:57.742Z,8.70
2023-02-19T13:48:04.587Z,5.70
2023-02-19T13:50:33.875Z,5.75
2023-02-19T13:53:59.685Z,5.88
2023-02-19T13:56:35.441Z,6.85
2023-02-19T13:59:13.008Z,5.93
2023-02-19T14:01:52.086Z,10.35
2023-02-19T14:04:41.113Z,7.20
2023-02-19T14:07:07.511Z,8.15
2023-02-19T14:09:37.521Z,6.05
2023-02-19T14:12:04.687Z,7.30
2023-02-19T14:14:35.553Z,7.30
2023-02-19T14:17:07.697Z,8.05
2023-02-19T14:19:48.772Z,6.07
2023-02-19T14:22:47.234Z,4.43
2023-02-19T14:25:28.920Z,7.05
2023-02-19T14:28:15.453Z,4.13
2023-02-19T14:30:55.560Z,6.35
2023-02-19T14:33:32.701Z,5.85
2023-02-19T14:36:22.441Z,2.85
2023-02-19T14:38:56.745Z,3.53
2023-02-19T14:41:24.737Z,5.03
2023-02-19T14:43:54.125Z,7.53
2023-02-19T14:46:46.039Z,4.78
2023-02-19T14:49:28.984Z,3.35
2023-02-19T14:52:00.465Z,7.10
2023-02-19T14:54:42.876Z,5.05
2023-02-19T14:57:16.810Z,8.48
2023-02-19T14:59:54.020Z,7.03
2023-02-19T15:02:21.387Z,5.30
2023-02-19T15:04:48.192Z,5.75
2023-02-19T15:07:19.740Z,7.43
2023-02-19T15:10:03.612Z,3.75
2023-02-19T15:12:41.705Z,12.27
2023-02-19T15:15:09.330Z,9.02
2023-02-19T15:17:40.442Z,5.72
2023-02-19T15:20:11.571Z,9.73
2023-02-19T15:22:41.335Z,8.00
2023-02-19T15:25:16.845Z,4.47
2023-02-19T15:27:43.816Z,9.07
2023-02-19T15:30:24.505Z,7.75
2023-02-19T15:32:57.071Z,6.05
2023-02-19T15:35:25.194Z,11.02
2023-02-19T15:37:52.745Z,5.47
2023-02-19T15:40:24.939Z,6.90
2023-02-19T15:42:51.679Z,7.80
2023-02-19T15:45:41.365Z,6.43
2023-02-19T15:48:21.926Z,7.07
2023-02-19T15:53:24.015Z,7.68
2023-02-19T15:56:02.370Z,7.55
2023-02-19T15:58:43.728Z,6.22
2023-02-19T16:01:16.648Z,7.80
2023-02-19T16:03:43.343Z,7.65
2023-02-19T16:06:15.339Z,3.55
2023-02-19T16:08:46.741Z,6.57
2023-02-19T16:11:22.523Z,4.18
2023-02-19T16:13:53.029Z,5.60
2023-02-19T16:16:29.812Z,5.85
2023-02-19T16:18:57.374Z,6.47
2023-02-19T16:21:27.173Z,3.58
2023-02-19T16:24:05.131Z,4.77
2023-02-19T16:26:40.562Z,5.75
2023-02-19T16:29:19.011Z,2.03
2023-02-19T16:31:57.873Z,4.47
2023-02-19T16:34:41.855Z,6.22
2023-02-19T16:37:30.921Z,9.10
2023-02-19T16:40:17.461Z,8.18
2023-02-19T16:42:50.837Z,9.85
2023-02-19T16:45:17.991Z,7.45
2023-02-19T16:47:48.270Z,7.40
2023-02-19T16:50:17.046Z,8.30
2023-02-19T16:52:56.761Z,10.32
2023-02-19T16:55:24.105Z,9.48
2023-02-19T16:57:50.965Z,9.40
2023-02-19T17:00:23.866Z,13.20
2023-02-19T17:02:53.014Z,7.90
2023-02-19T17:05:21.536Z,8.55
2023-02-19T17:07:48.789Z,9.48
2023-02-19T17:10:21.070Z,12.82
2023-02-19T17:12:47.602Z,9.02
2023-02-19T17:15:14.630Z,9.13
2023-02-19T17:17:41.602Z,8.35
2023-02-19T17:20:17.125Z,11.90
2023-02-19T17:22:44.559Z,9.07
2023-02-19T17:25:11.034Z,11.30
2023-02-19T17:27:37.635Z,9.35
2023-02-19T17:30:13.162Z,15.65
2023-02-19T17:32:40.048Z,8.00
2023-02-19T17:35:06.845Z,6.40
2023-02-19T17:37:33.390Z,9.65
2023-02-19T17:39:59.925Z,9.02
2023-02-19T17:42:26.668Z,12.60
2023-02-19T17:44:53.494Z,10.70
2023-02-19T17:47:21.485Z,10.02
2023-02-19T17:49:47.943Z,11.95
2023-02-19T17:52:17.539Z,9.75
2023-02-19T17:54:44.120Z,11.73
2023-02-19T17:57:11.396Z,13.98
2023-02-19T17:59:37.843Z,9.65
2023-02-19T18:02:04.631Z,10.55
2023-02-19T18:04:31.085Z,10.23
2023-02-19T18:06:57.705Z,11.35
2023-02-19T18:09:25.114Z,12.00
2023-02-19T18:11:51.657Z,8.45
2023-02-19T18:14:18.475Z,10.23
2023-02-19T18:16:49.691Z,5.70
2023-02-19T18:19:17.683Z,4.20
2023-02-19T18:21:44.129Z,10.10
2023-02-19T18:24:10.847Z,10.10
2023-02-19T18:26:37.316Z,8.13
2023-02-19T18:29:05.926Z,7.57
2023-02-19T18:31:33.665Z,8.82
2023-02-19T18:34:00.539Z,8.77
2023-02-19T18:36:27.045Z,8.52
2023-02-19T18:38:54.029Z,10.68
2023-02-19T18:41:21.043Z,9.00
2023-02-19T18:43:48.454Z,8.13
2023-02-19T18:46:15.214Z,9.27
2023-02-19T18:48:41.982Z,11.02
2023-02-19T18:51:12.484Z,11.27
2023-02-19T18:53:42.141Z,10.38
2023-02-19T18:56:09.545Z,11.73
2023-02-19T18:58:36.486Z,11.32
2023-02-19T19:01:03.177Z,13.02
2023-02-19T19:03:31.514Z,14.15
2023-02-19T19:05:58.444Z,11.98
2023-02-19T19:08:25.181Z,11.88
2023-02-19T19:10:55.602Z,16.35
2023-02-19T19:13:22.281Z,13.20
2023-02-19T19:15:51.966Z,12.98
2023-02-19T19:18:18.843Z,10.65
2023-02-19T19:20:45.330Z,12.43
2023-02-19T19:23:12.405Z,14.75
2023-02-19T19:25:38.948Z,13.63
2023-02-19T19:28:05.725Z,15.77
2023-02-19T19:30:33.554Z,19.40
2023-02-19T19:33:02.338Z,15.55
2023-02-19T19:35:29.048Z,16.02
2023-02-19T19:37:55.472Z,12.25
2023-02-19T19:40:22.072Z,14.13
2023-02-19T19:42:51.826Z,13.10
2023-02-19T19:45:18.602Z,12.07
2023-02-19T19:47:45.357Z,10.95
2023-02-19T19:50:13.122Z,14.63
2023-02-19T19:52:40.683Z,13.55
2023-02-19T19:55:07.458Z,11.48
2023-02-19T19:57:33.918Z,11.20
2023-02-19T20:00:00.494Z,11.05
2023-02-19T20:02:27.417Z,17.08
2023-02-19T20:04:54.293Z,12.68
2023-02-19T20:07:21.127Z,10.65
2023-02-19T20:09:49.495Z,17.25
2023-02-19T20:12:17.396Z,12.15
2023-02-19T20:14:46.131Z,11.75
2023-02-19T20:17:13.140Z,10.63
2023-02-19T20:19:39.992Z,13.30
2023-02-19T20:22:06.793Z,17.35
2023-02-19T20:24:33.301Z,11.25
2023-02-19T20:27:02.435Z,15.02
2023-02-19T20:29:32.226Z,10.25
2023-02-19T20:32:00.015Z,10.10
2023-02-19T20:34:27.124Z,10.40
2023-02-19T20:36:53.698Z,10.38
2023-02-19T20:39:21.961Z,11.60
2023-02-19T20:41:50.472Z,15.43
2023-02-19T20:44:18.237Z,11.07
2023-02-19T20:46:46.764Z,9.57
2023-02-19T20:49:19.091Z,14.95
2023-02-19T20:51:50.462Z,14.88
2023-02-19T20:54:22.445Z,15.57
2023-02-19T20:56:51.495Z,9.80
2023-02-19T20:59:19.429Z,12.05
2023-02-19T21:01:46.705Z,9.40
2023-02-19T21:04:13.876Z,8.43
2023-02-19T21:06:40.808Z,12.00
2023-02-19T21:09:08.336Z,20.10
2023-02-19T21:11:34.762Z,12.27
2023-02-19T21:14:01.914Z,12.25
2023-02-19T21:16:30.704Z,15.63
2023-02-19T21:18:58.210Z,16.88
2023-02-19T21:21:26.163Z,15.40
2023-02-19T21:23:58.222Z,11.00
2023-02-19T21:26:25.261Z,12.05
2023-02-19T21:28:52.322Z,15.98
2023-02-19T21:31:19.594Z,10.02
2023-02-19T21:33:46.977Z,12.95
2023-02-19T21:36:13.703Z,9.55
2023-02-19T21:38:40.335Z,13.55
2023-02-19T21:41:06.825Z,11.20
2023-02-19T21:43:37.381Z,12.73
2023-02-19T21:46:03.978Z,15.65
2023-02-19T21:48:31.280Z,12.75
2023-02-19T21:50:57.757Z,13.85
2023-02-19T21:53:24.909Z,14.73
2023-02-19T21:55:58.417Z,16.08
2023-02-19T21:58:26.602Z,15.68
2023-02-19T22:00:53.965Z,13.50
2023-02-19T22:03:21.012Z,14.38
2023-02-19T22:05:47.546Z,13.13
2023-02-19T22:08:15.872Z,12.57
2023-02-19T22:10:42.568Z,16.80
2023-02-19T22:13:10.204Z,23.23
2023-02-19T22:15:36.883Z,17.52
2023-02-19T22:18:03.973Z,17.80
2023-02-19T22:20:30.614Z,12.27
2023-02-19T22:22:57.061Z,15.95
2023-02-19T22:25:23.763Z,12.15
2023-02-19T22:27:50.649Z,12.32
2023-02-19T22:30:17.495Z,14.77
2023-02-19T22:32:44.302Z,15.13
2023-02-19T22:35:11.008Z,13.68
2023-02-19T22:37:37.612Z,10.95
2023-02-19T22:40:04.332Z,14.18
2023-02-19T22:42:30.835Z,11.13
2023-02-19T22:44:57.360Z,14.88
2023-02-19T22:47:24.216Z,12.45
2023-02-19T22:49:51.221Z,9.63
2023-02-19T22:52:18.074Z,13.57
2023-02-19T22:54:44.757Z,12.50
2023-02-19T22:57:12.079Z,15.65
2023-02-19T22:59:41.446Z,10.75
2023-02-19T23:02:08.006Z,13.30
2023-02-19T23:04:34.573Z,17.67
2023-02-19T23:07:01.327Z,14.43
2023-02-19T23:09:29.535Z,12.30
2023-02-19T23:12:03.286Z,12.77
2023-02-19T23:14:29.979Z,15.10
2023-02-19T23:16:56.520Z,15.10
2023-02-19T23:19:23.189Z,12.50
2023-02-19T23:21:50.671Z,9.10
2023-02-19T23:24:17.155Z,15.18
2023-02-19T23:26:49.512Z,11.43
2023-02-19T23:29:26.928Z,10.20
2023-02-19T23:31:54.557Z,11.35
2023-02-19T23:34:21.747Z,14.82
2023-02-19T23:36:50.441Z,11.98
2023-02-19T23:39:19.887Z,15.30
2023-02-19T23:41:52.633Z,13.10
2023-02-19T23:44:20.556Z,13.85
2023-02-19T23:46:47.948Z,18.15
2023-02-19T23:49:14.561Z,9.70
2023-02-19T23:51:40.979Z,11.52
2023-02-19T23:54:08.230Z,11.38
2023-02-19T23:56:35.194Z,10.45
2023-02-19T23:59:01.844Z,15.30
